Time;durP1;ratioP1;P1;durP2;ratioP2;P2;SDS_P1;SDS_P2;PMS_P1;PMS_P2;Temp;Humidity;BMP_temperature;BMP_pressure;BME280_temperature;BME280_humidity;BME280_pressure;Samples;Min_cycle;Max_cycle;Signal;HPM_P1;HPM_P2
2022/01/13 00:02:06;;;;;;;94.25;36.75;;;;;;;-1.18;83.53;101794.86;1843757;77;25410;-73
2022/01/13 00:04:35;;;;;;;86.65;34.10;;;;;;;-1.18;83.49;101788.73;1843695;76;26856;-75
2022/01/13 00:07:02;;;;;;;88.05;35.23;;;;;;;-1.16;83.97;101799.97;1843630;77;34646;-75
2022/01/13 00:09:29;;;;;;;93.30;34.63;;;;;;;-1.17;83.74;101802.34;1820383;77;25609;-73
2022/01/13 00:11:57;;;;;;;89.03;33.48;;;;;;;-1.17;83.85;101795.70;1843603;77;25660;-73
2022/01/13 00:15:06;;;;;;;85.85;32.65;;;;;;;-1.15;83.75;101795.80;1843650;76;25546;-74
2022/01/13 00:19:46;;;;;;;85.62;33.28;;;;;;;-1.14;83.94;101788.16;1843547;77;25626;-75
2022/01/13 00:22:17;;;;;;;86.32;32.23;;;;;;;-1.16;84.14;101787.54;1841530;77;25544;-74
2022/01/13 00:24:32;;;;;;;86.12;33.53;;;;;;;-1.15;84.00;101791.00;1843961;77;25810;-74
2022/01/13 00:27:00;;;;;;;82.17;33.85;;;;;;;-1.12;84.10;101768.05;1820364;77;25555;-74
2022/01/13 00:29:30;;;;;;;88.50;35.90;;;;;;;-1.11;84.19;101767.53;1820072;77;27201;-74
2022/01/13 00:31:56;;;;;;;85.65;34.25;;;;;;;-1.10;84.18;101771.84;1843693;77;25699;-74
2022/01/13 00:34:22;;;;;;;82.42;33.75;;;;;;;-1.10;84.36;101779.30;1820587;77;25454;-74
2022/01/13 00:36:49;;;;;;;86.82;33.28;;;;;;;-1.10;84.09;101775.83;1843675;77;25627;-75
2022/01/13 00:39:17;;;;;;;89.10;33.60;;;;;;;-1.11;84.19;101768.86;1843717;76;25555;-74
2022/01/13 00:41:44;;;;;;;88.47;36.53;;;;;;;-1.13;84.62;101757.91;1820411;77;27883;-74
2022/01/13 00:44:11;;;;;;;89.72;33.38;;;;;;;-1.15;84.27;101769.25;1809867;77;25717;-74
2022/01/13 00:46:43;;;;;;;87.57;33.83;;;;;;;-1.14;84.69;101755.48;1843623;77;25430;-74
2022/01/13 00:49:12;;;;;;;85.57;34.43;;;;;;;-1.15;85.15;101735.23;1843618;77;26302;-75
2022/01/13 00:51:40;;;;;;;94.77;34.70;;;;;;;-1.17;84.66;101722.16;1843774;77;25232;-74
2022/01/13 00:54:08;;;;;;;85.35;34.05;;;;;;;-1.16;84.92;101714.52;1843596;77;27374;-74
2022/01/13 00:56:36;;;;;;;89.87;33.55;;;;;;;-1.15;84.74;101725.95;1843545;77;25516;-74
2022/01/13 00:59:09;;;;;;;90.70;35.60;;;;;;;-1.14;85.06;101734.23;1843556;77;25372;-74
2022/01/13 01:01:42;;;;;;;83.58;30.97;;;;;;;-1.15;84.95;101759.14;1809908;77;25601;-74
2022/01/13 01:04:10;;;;;;;95.75;36.15;;;;;;;-1.15;85.32;101783.04;1843719;77;25405;-74
2022/01/13 01:06:37;;;;;;;90.90;35.80;;;;;;;-1.16;85.08;101799.97;1843566;77;27304;-74
2022/01/13 01:09:06;;;;;;;86.22;34.58;;;;;;;-1.15;84.98;101784.37;1843610;77;25346;-74
2022/01/13 01:11:32;;;;;;;81.42;31.52;;;;;;;-1.14;85.53;101741.69;1843658;77;25601;-74
2022/01/13 01:14:02;;;;;;;81.90;33.40;;;;;;;-1.14;85.26;101726.27;1843582;77;25621;-74
2022/01/13 01:16:28;;;;;;;;;;;;;;;-1.16;85.13;101703.89;1846411;76;25184;-74
2022/01/13 01:19:03;;;;;;;84.70;33.85;;;;;;;-1.16;85.09;101695.08;1843656;76;27336;-74
2022/01/13 01:24:11;;;;;;;83.82;35.33;;;;;;;-1.17;85.50;101658.95;1843644;77;25526;-74
2022/01/13 01:29:07;;;;;;;74.05;31.02;;;;;;;-1.21;85.39;101647.91;1843659;77;25524;-74
2022/01/13 01:31:30;;;;;;;77.30;30.32;;;;;;;-1.21;85.33;101651.88;1840999;77;27327;-74
2022/01/13 01:34:18;;;;;;;69.82;30.57;;;;;;;-1.21;85.51;101664.31;1818076;78;25704;-74
2022/01/13 01:36:26;;;;;;;69.30;29.60;;;;;;;-1.22;85.91;101683.42;1844466;77;32328;-74
2022/01/13 01:38:55;;;;;;;71.12;28.75;;;;;;;-1.23;85.82;101677.79;1820649;77;25826;-74
2022/01/13 01:41:21;;;;;;;68.75;28.95;;;;;;;-1.24;85.64;101700.06;1843756;77;25596;-74
2022/01/13 01:43:49;;;;;;;62.45;28.62;;;;;;;-1.25;85.64;101707.70;1843739;77;27414;-74
2022/01/13 01:46:16;;;;;;;69.22;28.20;;;;;;;-1.24;85.58;101709.36;1843507;77;25511;-74
2022/01/13 01:48:43;;;;;;;70.28;27.02;;;;;;;-1.24;85.48;101720.46;1819840;78;25526;-74
2022/01/13 01:51:09;;;;;;;69.55;28.98;;;;;;;-1.22;85.63;101715.80;1843561;77;26278;-74
2022/01/13 01:53:36;;;;;;;64.53;28.10;;;;;;;-1.22;85.53;101707.31;1843617;77;25697;-74
2022/01/13 01:56:03;;;;;;;64.80;26.95;;;;;;;-1.21;85.59;101693.53;1843534;76;27321;-74
2022/01/13 01:58:30;;;;;;;77.20;29.00;;;;;;;-1.21;86.26;101667.81;1843482;77;25632;-74
2022/01/13 02:00:56;;;;;;;75.22;29.45;;;;;;;-1.22;86.01;101674.65;1843602;77;25639;-74
2022/01/13 02:03:25;;;;;;;71.22;29.15;;;;;;;-1.21;85.72;101680.25;1843540;77;25676;-74
2022/01/13 02:05:53;;;;;;;69.97;25.90;;;;;;;-1.21;85.65;101692.20;1843725;77;25618;-74
2022/01/13 02:08:19;;;;;;;72.62;28.85;;;;;;;-1.20;85.80;101708.45;1809539;77;27251;-74
2022/01/13 02:10:46;;;;;;;64.20;26.20;;;;;;;-1.19;85.90;101710.91;1843486;77;25509;-74
2022/01/13 02:13:20;;;;;;;66.90;26.35;;;;;;;-1.18;85.69;101709.07;1843590;77;25584;-74
2022/01/13 02:18:16;;;;;;;59.48;24.05;;;;;;;-1.17;85.61;101702.76;1778854;80;25448;-74
2022/01/13 02:20:50;;;;;;;62.85;24.87;;;;;;;-1.16;85.74;101695.92;1778840;80;27402;-74
2022/01/13 02:23:37;;;;;;;60.73;24.95;;;;;;;-1.14;85.75;101675.81;1778868;80;25587;-74
2022/01/13 02:26:07;;;;;;;56.18;23.15;;;;;;;-1.16;86.00;101682.65;1778888;80;25490;-73
2022/01/13 02:28:34;;;;;;;59.30;23.35;;;;;;;-1.17;86.23;101681.52;1778797;80;26596;-73
2022/01/13 02:31:01;;;;;;;69.53;26.85;;;;;;;-1.18;85.81;101697.94;1781551;80;25487;-73
2022/01/13 02:33:28;;;;;;;64.77;24.00;;;;;;;-1.17;85.87;101696.12;1784664;80;27919;-73
2022/01/13 02:35:55;;;;;;;62.67;25.10;;;;;;;-1.15;85.95;101704.19;1784531;80;25431;-73
2022/01/13 02:38:22;;;;;;;59.38;23.60;;;;;;;-1.13;86.17;101701.34;1784607;80;25608;-73
2022/01/13 02:40:55;;;;;;;69.15;24.80;;;;;;;-1.14;86.15;101689.91;1784634;80;25617;-75
2022/01/13 02:43:22;;;;;;;61.20;24.65;;;;;;;-1.11;86.10;101696.64;1784531;80;25758;-74
2022/01/13 02:46:18;;;;;;;62.25;24.12;;;;;;;-1.10;85.93;101700.14;1784638;80;27330;-74
2022/01/13 02:50:55;;;;;;;64.30;25.25;;;;;;;-1.08;86.07;101692.79;1784763;79;25580;-73
2022/01/13 02:53:22;;;;;;;66.25;25.02;;;;;;;-1.07;86.25;101689.09;1784628;80;25644;-73
2022/01/13 02:55:50;;;;;;;66.85;25.82;;;;;;;-1.08;86.22;101684.82;1829864;77;25423;-73
2022/01/13 02:58:17;;;;;;;69.80;25.62;;;;;;;-1.08;86.57;101688.28;1793704;80;27380;-73
2022/01/13 03:00:44;;;;;;;78.60;26.60;;;;;;;-1.09;86.19;101680.52;1826183;76;25453;-73
2022/01/13 03:03:12;;;;;;;64.92;25.17;;;;;;;-1.08;86.39;101666.23;1792151;79;25593;-73
2022/01/13 03:05:40;;;;;;;70.50;23.73;;;;;;;-1.06;86.21;101668.17;1826197;78;26175;-73
2022/01/13 03:08:08;;;;;;;59.77;24.10;;;;;;;-1.07;86.18;101657.23;1792076;80;25645;-73
2022/01/13 03:10:35;;;;;;;66.33;25.80;;;;;;;-1.05;86.28;101655.22;1826338;78;27308;-73
2022/01/13 03:13:03;;;;;;;65.95;26.23;;;;;;;-1.05;86.29;101644.08;1791981;80;25605;-73
2022/01/13 03:15:29;;;;;;;71.33;27.48;;;;;;;-1.03;86.48;101648.67;1826292;77;25439;-73
2022/01/13 03:17:56;;;;;;;68.57;24.35;;;;;;;-1.03;86.42;101643.36;1803564;78;25711;-73
2022/01/13 03:20:23;;;;;;;70.42;24.40;;;;;;;-1.02;86.65;101631.73;1826417;78;25548;-73
2022/01/13 03:22:49;;;;;;;64.72;22.82;;;;;;;-1.01;86.40;101628.56;1826399;78;26893;-74
2022/01/13 03:25:21;;;;;;;68.78;23.70;;;;;;;-1.02;86.76;101621.59;1826368;76;25537;-74
2022/01/13 03:27:44;;;;;;;67.17;22.80;;;;;;;-1.03;86.56;101624.77;1825453;78;25641;-74
2022/01/13 03:30:12;;;;;;;62.33;23.12;;;;;;;-0.99;86.55;101626.03;1803428;77;25691;-74
2022/01/13 03:32:38;;;;;;;63.30;22.27;;;;;;;-0.99;86.63;101622.05;1810085;78;25619;-74
2022/01/13 03:35:07;;;;;;;63.05;22.27;;;;;;;-0.99;86.94;101620.72;1815011;79;27300;-74
2022/01/13 03:37:34;;;;;;;60.63;22.73;;;;;;;-0.99;86.97;101619.39;1779197;80;25683;-74
2022/01/13 03:40:02;;;;;;;60.88;21.52;;;;;;;-0.99;86.91;101616.73;1803670;78;25371;-74
2022/01/13 03:42:31;;;;;;;62.17;21.75;;;;;;;-0.97;86.83;101611.20;1806651;79;25624;-75
2022/01/13 03:45:00;;;;;;;55.10;20.75;;;;;;;-0.97;86.93;101608.54;1804348;79;25652;-74
2022/01/13 03:47:27;;;;;;;51.48;20.30;;;;;;;-0.96;86.98;101591.08;1804320;79;27392;-74
2022/01/13 03:49:54;;;;;;;56.70;19.60;;;;;;;-0.95;87.35;101590.07;1805604;79;25772;-73
2022/01/13 03:52:31;;;;;;;59.85;20.32;;;;;;;-0.94;87.46;101578.92;1778297;80;25406;-73
2022/01/13 03:55:15;;;;;;;49.25;18.67;;;;;;;-0.92;87.75;101568.10;1805498;79;25673;-73
2022/01/13 03:58:19;;;;;;;53.30;19.73;;;;;;;-0.93;87.83;101572.61;1770085;80;25433;-73
2022/01/13 04:01:34;;;;;;;50.33;18.55;;;;;;;-0.90;87.69;101560.25;1796453;79;27282;-73
2022/01/13 04:04:00;;;;;;;46.95;19.73;;;;;;;-0.90;87.95;101553.61;1803548;78;25597;-74
2022/01/13 04:06:37;;;;;;;50.98;19.55;;;;;;;-0.88;88.34;101564.05;1806227;79;25515;-74
2022/01/13 04:09:21;;;;;;;56.13;21.17;;;;;;;-0.89;88.06;101559.22;1778291;80;25731;-74
2022/01/13 04:11:48;;;;;;;48.55;18.55;;;;;;;-0.88;88.36;101567.50;1806633;78;25408;-73
2022/01/13 04:14:14;;;;;;;52.67;19.77;;;;;;;-0.90;89.34;101556.27;1806859;79;27427;-73
2022/01/13 04:16:41;;;;;;;48.98;19.75;;;;;;;-0.90;89.38;101552.28;1806109;78;25590;-74
2022/01/13 04:19:08;;;;;;;49.63;19.65;;;;;;;-0.89;89.37;101545.13;1806964;78;25446;-74
2022/01/13 04:21:38;;;;;;;53.78;18.57;;;;;;;-0.89;89.50;101543.28;1807198;78;25653;-74
2022/01/13 04:24:06;;;;;;;50.88;19.15;;;;;;;-0.88;89.29;101541.46;1803614;79;25462;-74
2022/01/13 04:26:34;;;;;;;43.78;18.15;;;;;;;-0.87;89.16;101537.77;1798856;78;27508;-74
2022/01/13 04:31:39;;;;;;;52.75;19.23;;;;;;;-0.86;89.28;101511.52;1807565;77;25586;-74
2022/01/13 04:34:06;;;;;;;47.03;18.87;;;;;;;-0.88;89.17;101501.61;1815867;78;25625;-74
2022/01/13 04:36:33;;;;;;;49.75;18.42;;;;;;;-0.84;89.88;101502.31;1806333;78;25472;-74
2022/01/13 04:38:59;;;;;;;52.08;18.98;;;;;;;-0.81;89.46;101504.56;1803666;78;28007;-74
2022/01/13 04:41:35;;;;;;;45.25;18.55;;;;;;;-0.79;89.60;101503.04;1803618;79;25600;-74
2022/01/13 04:43:58;;;;;;;46.80;18.07;;;;;;;-0.78;89.83;101497.52;1781613;79;25452;-74
2022/01/13 04:46:25;;;;;;;46.75;18.00;;;;;;;-0.74;90.14;101505.09;1803686;79;25664;-74
2022/01/13 04:48:52;;;;;;;47.05;18.45;;;;;;;-0.72;90.23;101517.14;1771331;79;25610;-74
2022/01/13 04:51:20;;;;;;;42.67;16.32;;;;;;;-0.68;90.90;101514.89;1803711;79;27377;-74
2022/01/13 04:53:46;;;;;;;38.40;16.90;;;;;;;-0.68;91.16;101521.05;1792395;79;25617;-74
2022/01/13 04:56:26;;;;;;;51.05;18.82;;;;;;;-0.66;90.96;101518.19;1803655;79;25550;-74
2022/01/13 04:58:42;;;;;;;45.73;18.12;;;;;;;-0.63;91.05;101511.11;1803937;79;25616;-74
2022/01/13 05:01:08;;;;;;;48.55;18.55;;;;;;;-0.63;91.22;101506.62;1803713;79;25601;-74
2022/01/13 05:03:35;;;;;;;46.63;18.75;;;;;;;-0.61;91.82;101501.92;1809667;79;27338;-74
2022/01/13 05:06:01;;;;;;;42.90;18.80;;;;;;;-0.60;92.20;101490.77;1803620;79;25597;-74
2022/01/13 05:08:28;;;;;;;39.98;17.07;;;;;;;-0.59;91.72;101480.45;1803708;79;25598;-74
2022/01/13 05:10:55;;;;;;;45.30;18.42;;;;;;;-0.58;91.68;101464.80;1770285;81;25819;-74
2022/01/13 05:13:22;;;;;;;43.05;17.90;;;;;;;-0.57;91.81;101473.90;1803674;79;25384;-74
2022/01/13 05:15:50;;;;;;;45.83;19.50;;;;;;;-0.55;91.77;101491.49;1771945;81;27343;-74
2022/01/13 05:21:05;;;;;;;37.70;16.35;;;;;;;-0.52;92.23;101485.77;1771949;81;25574;-74
2022/01/13 05:23:32;;;;;;;30.37;12.60;;;;;;;-0.50;92.51;101489.03;1781623;79;25671;-74
2022/01/13 05:25:59;;;;;;;35.58;15.18;;;;;;;-0.49;93.16;101485.37;1770281;81;25585;-73
2022/01/13 05:28:25;;;;;;;38.85;15.08;;;;;;;-0.50;93.00;101476.55;1803644;79;27316;-72
2022/01/13 05:30:53;;;;;;;37.90;15.58;;;;;;;-0.50;93.04;101477.88;1769952;81;25676;-74
2022/01/13 05:33:20;;;;;;;31.97;15.08;;;;;;;-0.49;92.81;101471.55;1772747;80;25558;-74
2022/01/13 05:35:47;;;;;;;32.65;14.60;;;;;;;-0.46;93.42;101445.06;1775428;80;26392;-70
2022/01/13 05:38:14;;;;;;;33.00;14.03;;;;;;;-0.46;93.16;101466.33;1753458;80;25518;-74
2022/01/13 05:40:41;;;;;;;28.25;13.55;;;;;;;-0.45;93.17;101474.62;1775456;79;27312;-74
2022/01/13 05:43:08;;;;;;;28.67;13.68;;;;;;;-0.45;93.10;101448.84;1775380;80;25588;-74
2022/01/13 05:45:35;;;;;;;28.57;14.53;;;;;;;-0.43;93.42;101439.33;1775493;80;25602;-74
2022/01/13 05:48:06;;;;;;;25.00;11.78;;;;;;;-0.45;93.07;101426.25;1775449;80;25649;-74
2022/01/13 05:50:33;;;;;;;24.12;10.82;;;;;;;-0.41;92.95;101426.16;1775522;80;25559;-75
2022/01/13 05:53:05;;;;;;;26.60;11.53;;;;;;;-0.39;92.95;101437.39;1775451;80;27313;-75
2022/01/13 05:55:34;;;;;;;22.17;10.60;;;;;;;-0.39;93.24;101442.70;1775410;80;25636;-75
2022/01/13 05:58:01;;;;;;;26.55;12.10;;;;;;;-0.39;93.45;101431.27;1775468;80;25416;-74
2022/01/13 06:00:29;;;;;;;22.17;10.82;;;;;;;-0.38;93.94;101427.56;1775428;80;25629;-75
2022/01/13 06:02:55;;;;;;;21.40;10.70;;;;;;;-0.39;93.39;101449.35;1775507;80;25585;-75
2022/01/13 06:05:25;;;;;;;26.02;15.20;;;;;;;-0.39;93.04;101432.07;1775457;80;28077;-74
2022/01/13 06:07:53;;;;;;;;;;;;;;;-0.35;93.69;101435.12;1778005;80;25647;-74
2022/01/13 06:10:21;;;;;;;24.90;11.97;;;;;;;-0.35;93.96;101432.47;1775525;80;25479;-75
2022/01/13 06:12:52;;;;;;;27.22;12.05;;;;;;;-0.35;94.16;101423.69;1775449;80;26296;-75
2022/01/13 06:15:22;;;;;;;23.90;12.50;;;;;;;-0.36;94.13;101424.17;1775513;80;25558;-74
2022/01/13 06:17:53;;;;;;;25.02;11.80;;;;;;;-0.35;93.94;101425.83;1753447;80;27291;-74
2022/01/13 06:20:21;;;;;;;25.25;11.75;;;;;;;-0.35;94.03;101423.16;1735546;82;25610;-74
2022/01/13 06:22:50;;;;;;;26.62;13.58;;;;;;;-0.34;93.77;101423.48;1771689;80;25455;-74
2022/01/13 06:25:18;;;;;;;25.05;12.18;;;;;;;-0.33;94.23;101411.00;1775473;80;25793;-74
2022/01/13 06:27:45;;;;;;;24.15;12.45;;;;;;;-0.31;94.24;101415.58;1780173;79;25389;-74
2022/01/13 06:30:15;;;;;;;25.10;12.70;;;;;;;-0.31;94.39;101411.08;1725322;81;27317;-74
2022/01/13 06:32:46;;;;;;;24.35;11.95;;;;;;;-0.30;94.18;101393.30;1850573;76;25531;-74
2022/01/13 06:35:13;;;;;;;25.48;12.55;;;;;;;-0.29;94.34;101379.80;1844004;77;25600;-74
2022/01/13 06:37:43;;;;;;;23.92;11.50;;;;;;;-0.28;94.24;101369.97;1820331;77;25850;-74
2022/01/13 06:40:13;;;;;;;23.57;12.47;;;;;;;-0.28;94.01;101361.99;1843556;77;25367;-74
2022/01/13 06:42:41;;;;;;;;;;;;;;;-0.28;94.18;101362.80;1846295;77;27046;-74
2022/01/13 06:45:10;;;;;;;25.60;12.35;;;;;;;-0.25;94.66;101359.73;1843457;77;25430;-74
2022/01/13 06:47:38;;;;;;;;;;;;;;;-0.25;94.15;101352.27;1823104;77;25476;-74
2022/01/13 06:50:26;;;;;;;20.77;11.15;;;;;;;-0.24;94.16;101342.76;1843551;76;25692;-74
2022/01/13 06:52:56;;;;;;;25.43;11.68;;;;;;;-0.25;94.81;101347.77;1876962;76;25469;-74
2022/01/13 06:55:23;;;;;;;22.60;11.65;;;;;;;-0.26;94.54;101353.28;1822711;78;27339;-74
2022/01/13 06:57:50;;;;;;;22.90;11.80;;;;;;;-0.22;94.78;101355.84;1877151;76;25642;-75
2022/01/13 07:00:17;;;;;;;24.02;11.50;;;;;;;-0.21;94.54;101370.75;1822764;78;25571;-74
2022/01/13 07:02:43;;;;;;;23.30;12.50;;;;;;;-0.20;94.67;101361.77;1848823;76;25616;-74
2022/01/13 07:05:11;;;;;;;22.17;12.25;;;;;;;-0.17;94.24;101375.13;1822567;78;25504;-74
2022/01/13 07:07:40;;;;;;;25.30;12.95;;;;;;;-0.16;94.53;101377.59;1877284;76;28113;-74
2022/01/13 07:10:12;;;;;;;22.93;11.85;;;;;;;-0.14;95.10;101381.37;1856172;77;25656;-75
2022/01/13 07:12:41;;;;;;;23.85;12.03;;;;;;;-0.13;95.15;101369.72;1877387;76;25666;-74
2022/01/13 07:15:11;;;;;;;20.93;11.37;;;;;;;-0.12;95.13;101380.64;1796268;78;26170;-74
2022/01/13 07:17:41;;;;;;;;;;;;;;;-0.11;94.84;101395.58;1851287;76;25444;-74
2022/01/13 07:20:09;;;;;;;22.45;11.12;;;;;;;-0.08;94.88;101409.80;1828332;77;27524;-74
2022/01/13 07:22:39;;;;;;;28.30;12.55;;;;;;;-0.09;95.40;101412.14;1872667;76;25429;-74
2022/01/13 07:25:08;;;;;;;26.60;13.15;;;;;;;-0.07;95.22;101400.28;1821442;78;25656;-74
2022/01/13 07:27:34;;;;;;;24.37;12.60;;;;;;;-0.06;94.89;101385.93;1877300;76;26161;-75
2022/01/13 07:30:00;;;;;;;24.25;12.28;;;;;;;-0.04;95.20;101377.22;1837424;77;25640;-74
2022/01/13 07:32:27;;;;;;;25.23;13.68;;;;;;;-0.02;95.26;101383.66;1915070;74;27353;-74
2022/01/13 07:34:54;;;;;;;25.17;12.70;;;;;;;-0.02;95.18;101377.85;1915267;74;25558;-74
2022/01/13 07:37:24;;;;;;;26.12;13.62;;;;;;;0.01;94.97;101388.56;1852959;77;25677;-74
2022/01/13 07:39:49;;;;;;;26.80;13.48;;;;;;;0.03;94.85;101397.14;1915075;74;25708;-74
2022/01/13 07:42:16;;;;;;;29.35;12.65;;;;;;;0.05;94.92;101391.12;1915442;74;25592;-74
2022/01/13 07:44:43;;;;;;;24.45;13.25;;;;;;;0.08;95.22;101396.00;1915309;74;27307;-74
2022/01/13 07:47:10;;;;;;;32.15;15.60;;;;;;;0.09;94.97;101404.29;1914892;74;25734;-74
2022/01/13 07:49:36;;;;;;;29.48;14.55;;;;;;;0.11;95.01;101412.87;1852969;77;25527;-74
2022/01/13 07:52:04;;;;;;;26.62;14.80;;;;;;;0.14;95.00;101407.13;1915194;74;25634;-73
2022/01/13 07:54:31;;;;;;;28.05;14.95;;;;;;;0.16;95.13;101400.27;1915051;74;25642;-74
2022/01/13 07:56:59;;;;;;;27.50;14.30;;;;;;;0.16;95.71;101397.09;1915299;74;27481;-75
2022/01/13 07:59:28;;;;;;;30.65;14.65;;;;;;;0.17;95.63;101381.44;1915357;74;25692;-74
2022/01/13 08:01:59;;;;;;;29.82;15.18;;;;;;;0.22;95.33;101397.27;1915222;74;25684;-75
2022/01/13 08:04:27;;;;;;;30.15;15.38;;;;;;;0.23;95.90;101409.03;1915255;74;25842;-73
2022/01/13 08:06:53;;;;;;;30.15;14.85;;;;;;;0.23;95.92;101402.38;1915299;74;25521;-74
2022/01/13 08:09:20;;;;;;;33.45;16.07;;;;;;;0.24;95.66;101387.22;1915058;74;27459;-74
2022/01/13 08:11:46;;;;;;;31.33;15.78;;;;;;;0.26;95.55;101403.29;1915230;74;25569;-75
2022/01/13 08:14:13;;;;;;;37.13;16.73;;;;;;;0.28;95.66;101406.55;1852846;77;25370;-75
2022/01/13 08:16:43;;;;;;;32.67;15.80;;;;;;;0.29;96.04;101407.36;1915071;74;25763;-74
2022/01/13 08:21:54;;;;;;;33.33;17.00;;;;;;;0.32;95.80;101401.61;1915509;74;27323;-74
2022/01/13 08:24:20;;;;;;;30.88;16.25;;;;;;;0.34;96.66;101411.52;1914859;74;25736;-74
2022/01/13 08:26:47;;;;;;;34.63;16.90;;;;;;;0.34;96.41;101394.22;1915366;74;25592;-75
2022/01/13 08:29:13;;;;;;;34.67;17.75;;;;;;;0.34;95.95;101396.39;1852840;77;26178;-75
2022/01/13 08:31:40;;;;;;;36.25;16.87;;;;;;;0.39;95.81;101398.39;1915202;74;26316;-75
2022/01/13 08:34:07;;;;;;;39.85;17.32;;;;;;;0.42;96.03;101397.16;1852842;77;27408;-76
2022/01/13 08:36:36;;;;;;;35.80;17.37;;;;;;;0.44;96.97;101412.40;1915362;74;25666;-76
2022/01/13 08:39:03;;;;;;;34.88;16.48;;;;;;;0.44;96.17;101418.53;1915173;74;25459;-75
2022/01/13 08:41:30;;;;;;;33.35;17.20;;;;;;;0.42;96.16;101409.95;1852844;77;26203;-75
2022/01/13 08:43:56;;;;;;;34.13;16.55;;;;;;;0.47;96.30;101408.79;1915165;74;25483;-75
2022/01/13 08:46:23;;;;;;;31.80;16.73;;;;;;;0.45;96.73;101402.06;1914982;74;27354;-75
2022/01/13 08:48:50;;;;;;;34.92;17.65;;;;;;;0.49;97.04;101410.72;1915141;74;25591;-75
2022/01/13 08:51:18;;;;;;;35.88;18.62;;;;;;;0.50;97.36;101412.89;1917025;74;25543;-75
2022/01/13 08:53:46;;;;;;;33.95;17.77;;;;;;;0.52;96.76;101393.52;1843324;77;25662;-75
2022/01/13 08:56:14;;;;;;;29.57;15.75;;;;;;;0.50;96.74;101375.09;1924898;74;25413;-76
2022/01/13 08:58:42;;;;;;;30.55;15.72;;;;;;;0.55;97.18;101365.94;1839292;77;27336;-75
2022/01/13 09:01:08;;;;;;;31.93;16.10;;;;;;;0.55;97.06;101367.27;1905299;74;25514;-74
2022/01/13 09:03:36;;;;;;;29.90;15.40;;;;;;;0.57;97.25;101361.73;1924561;74;25644;-76
2022/01/13 09:06:03;;;;;;;31.07;15.48;;;;;;;0.60;97.03;101364.50;1924390;74;25629;-76
2022/01/13 09:08:31;;;;;;;32.93;16.57;;;;;;;0.60;97.30;101353.84;1924188;74;25684;-76
2022/01/13 09:10:57;;;;;;;34.10;15.68;;;;;;;0.63;97.06;101359.55;1924454;74;27359;-76
2022/01/13 09:13:24;;;;;;;37.85;16.77;;;;;;;0.63;96.87;101362.22;1924382;74;25598;-76
2022/01/13 09:15:59;;;;;;;32.98;15.85;;;;;;;0.66;97.35;101355.09;1924213;74;25610;-75
2022/01/13 09:18:34;;;;;;;32.10;15.23;;;;;;;0.69;97.11;101369.31;1924426;74;25661;-75
2022/01/13 09:21:01;;;;;;;34.58;16.42;;;;;;;0.70;96.76;101358.98;1924277;74;25534;-76
2022/01/13 09:23:27;;;;;;;29.77;15.03;;;;;;;0.72;96.72;101374.74;1924126;74;27305;-75
2022/01/13 09:25:54;;;;;;;30.90;16.95;;;;;;;0.74;97.32;101369.48;1924432;74;25671;-76
2022/01/13 09:28:21;;;;;;;33.63;17.15;;;;;;;0.74;96.96;101368.16;1924569;74;26176;-76
2022/01/13 09:30:48;;;;;;;30.90;15.98;;;;;;;0.73;97.79;101361.21;1924171;74;26146;-75
2022/01/13 09:33:14;;;;;;;33.80;16.30;;;;;;;0.74;97.40;101356.16;1924667;74;25664;-76
2022/01/13 09:35:41;;;;;;;32.78;16.93;;;;;;;0.75;96.95;101355.67;1924547;74;27288;-76
2022/01/13 09:38:08;;;;;;;37.73;16.60;;;;;;;0.77;97.34;101359.42;1845895;76;25659;-77
2022/01/13 09:40:34;;;;;;;31.35;16.37;;;;;;;0.78;97.79;101354.41;1924419;74;25597;-76
2022/01/13 09:43:02;;;;;;;35.85;16.20;;;;;;;0.79;97.92;101354.72;1924365;74;25661;-76
2022/01/13 09:45:30;;;;;;;34.18;16.37;;;;;;;0.79;97.87;101340.06;1924226;74;25648;-76
2022/01/13 09:47:58;;;;;;;32.98;16.95;;;;;;;0.81;98.01;101345.98;1846283;76;27436;-76
2022/01/13 09:50:25;;;;;;;31.68;15.28;;;;;;;0.85;97.83;101350.67;1924417;74;25588;-76
2022/01/13 09:52:51;;;;;;;33.92;16.27;;;;;;;0.89;97.80;101338.53;1924070;74;25573;-75
2022/01/13 09:55:19;;;;;;;37.80;17.62;;;;;;;0.95;98.15;101332.84;1924667;74;26291;-76
2022/01/13 09:57:49;;;;;;;32.42;15.68;;;;;;;0.98;97.98;101331.59;1919192;74;25727;-76
2022/01/13 10:00:24;;;;;;;25.95;14.87;;;;;;;0.98;97.92;101314.28;1924634;74;27284;-75
2022/01/13 10:02:52;;;;;;;31.97;15.88;;;;;;;1.01;99.00;101291.20;1925057;74;25989;-77
2022/01/13 10:05:21;;;;;;;32.73;16.90;;;;;;;1.02;98.17;101293.64;1924981;74;25601;-75
2022/01/13 10:07:51;;;;;;;32.98;15.93;;;;;;;1.05;97.94;101291.04;1922527;74;25677;-76
2022/01/13 10:10:24;;;;;;;28.77;15.63;;;;;;;1.07;98.00;101301.79;1924342;74;25593;-75
2022/01/13 10:13:09;;;;;;;30.43;15.30;;;;;;;1.11;97.96;101302.16;1924515;74;27307;-75
2022/01/13 10:18:45;;;;;;;26.45;14.80;;;;;;;1.15;97.79;101296.67;1924442;74;25519;-76
2022/01/13 10:21:15;;;;;;;29.27;14.55;;;;;;;1.17;97.64;101303.12;1917115;74;26265;-74
2022/01/13 10:24:11;;;;;;;35.13;18.12;;;;;;;1.17;97.87;101289.80;1924501;74;25691;-75
2022/01/13 10:26:41;;;;;;;30.72;15.80;;;;;;;1.17;97.61;101298.59;1889543;74;27431;-74
2022/01/13 10:29:09;;;;;;;28.45;15.00;;;;;;;1.19;97.48;101300.55;1846236;76;25715;-74
2022/01/13 10:31:52;;;;;;;25.52;14.50;;;;;;;1.21;97.46;101285.63;1924502;74;25586;-75
2022/01/13 10:34:26;;;;;;;30.08;14.35;;;;;;;1.22;97.36;101291.27;1924563;74;26202;-75
2022/01/13 10:37:16;;;;;;;26.68;14.03;;;;;;;1.21;97.51;101289.13;1877668;76;25383;-75
2022/01/13 10:39:57;;;;;;;27.40;14.53;;;;;;;1.23;97.70;101286.25;1924640;74;27978;-75
2022/01/13 10:45:19;;;;;;;28.80;14.30;;;;;;;1.22;97.76;101267.28;1924204;74;25610;-76
2022/01/13 10:47:56;;;;;;;24.63;13.48;;;;;;;1.23;97.62;101274.26;1924595;74;25611;-75
2022/01/13 10:50:30;;;;;;;26.95;13.28;;;;;;;1.23;97.88;101260.41;1924820;74;25767;-74
2022/01/13 10:53:03;;;;;;;29.70;14.10;;;;;;;1.25;98.00;101268.18;1918538;74;28304;-73
2022/01/13 10:55:34;;;;;;;29.72;14.45;;;;;;;1.25;98.14;101261.52;1915065;74;25598;-74
2022/01/13 10:58:01;;;;;;;29.55;14.45;;;;;;;1.27;97.90;101250.11;1887122;76;25705;-74
2022/01/13 11:00:32;;;;;;;26.10;13.50;;;;;;;1.29;98.11;101266.69;1914844;74;25715;-74
2022/01/13 11:03:10;;;;;;;26.90;13.65;;;;;;;1.29;98.11;101257.36;1915015;74;25655;-74
2022/01/13 11:05:51;;;;;;;24.63;13.15;;;;;;;1.32;98.03;101260.91;1914642;74;27331;-74
2022/01/13 11:08:26;;;;;;;25.20;14.25;;;;;;;1.34;97.93;101251.36;1915022;74;25622;-74
2022/01/13 11:10:56;;;;;;;23.30;13.50;;;;;;;1.36;98.12;101241.28;1915055;74;25424;-74
2022/01/13 11:13:28;;;;;;;26.50;14.07;;;;;;;1.36;98.20;101238.09;1914940;74;25874;-74
2022/01/13 11:15:55;;;;;;;23.95;12.68;;;;;;;1.38;98.13;101231.20;1915213;74;25668;-75
2022/01/13 11:18:27;;;;;;;25.52;13.58;;;;;;;1.37;98.20;101224.26;1914973;74;27889;-73
2022/01/13 11:20:55;;;;;;;28.60;14.00;;;;;;;1.41;98.48;101211.56;1914496;74;25618;-75
2022/01/13 11:23:23;;;;;;;23.15;12.80;;;;;;;1.42;98.22;101211.88;1915035;74;25578;-74
2022/01/13 11:25:53;;;;;;;25.08;12.68;;;;;;;1.43;98.24;101213.52;1919630;74;26353;-75
2022/01/13 11:28:21;;;;;;;26.55;12.55;;;;;;;1.46;98.29;101197.57;1914737;74;25689;-75
2022/01/13 11:30:51;;;;;;;22.02;11.93;;;;;;;1.47;98.71;101190.68;1914890;74;28134;-74
2022/01/13 11:33:22;;;;;;;25.82;12.68;;;;;;;1.48;98.90;101184.82;1914911;74;25623;-73
2022/01/13 11:35:58;;;;;;;23.32;12.40;;;;;;;1.49;98.87;101185.13;1886984;76;25652;-73
2022/01/13 11:38:29;;;;;;;24.15;13.30;;;;;;;1.50;98.68;101181.44;1915138;74;25673;-74
2022/01/13 11:41:06;;;;;;;24.02;13.00;;;;;;;1.51;98.36;101177.70;1914895;74;25666;-75
2022/01/13 11:43:38;;;;;;;24.45;13.50;;;;;;;1.53;98.35;101181.48;1919232;74;27817;-74
2022/01/13 11:46:22;;;;;;;26.52;12.68;;;;;;;1.58;98.39;101173.61;1915054;74;25526;-74
2022/01/13 11:49:05;;;;;;;23.02;13.05;;;;;;;1.58;98.45;101173.08;1914883;74;25660;-74
2022/01/13 11:51:56;;;;;;;25.97;13.45;;;;;;;1.62;98.38;101170.27;1914567;74;25817;-73